createdAt,value
2019-06-20T06:45:35.908Z,31.09
2019-06-20T06:48:07.912Z,31.29
2019-06-20T06:50:40.049Z,31.56
2019-06-20T06:53:11.997Z,31.74
2019-06-20T06:55:44.175Z,31.79
2019-06-20T06:58:16.550Z,31.79
2019-06-20T07:00:48.614Z,31.85
2019-06-20T07:03:20.679Z,32.16
2019-06-20T07:05:52.893Z,32.23
2019-06-20T07:08:25.118Z,32.21
2019-06-20T07:10:57.087Z,32.23
2019-06-20T07:13:30.437Z,32.23
2019-06-20T07:16:03.465Z,32.25
2019-06-20T07:18:35.749Z,32.57
2019-06-20T07:21:07.607Z,32.44
2019-06-20T07:23:39.660Z,32.28
2019-06-20T07:26:11.828Z,32.61
2019-06-20T07:28:43.790Z,32.69
2019-06-20T07:31:15.552Z,32.79
2019-06-20T07:33:47.614Z,32.68
2019-06-20T07:36:19.476Z,32.78
2019-06-20T07:38:51.848Z,32.57
2019-06-20T07:41:24.061Z,32.66
2019-06-20T07:43:56.187Z,32.87
2019-06-20T07:46:28.260Z,33.39
2019-06-20T07:49:01.791Z,33.75
2019-06-20T07:51:33.823Z,34.13
2019-06-20T07:54:06.094Z,34.25
2019-06-20T07:56:38.515Z,34.58
2019-06-20T07:59:10.936Z,34.81
2019-06-20T08:01:43.124Z,35.12
2019-06-20T08:04:15.267Z,35.50
2019-06-20T08:06:48.538Z,35.57
2019-06-20T08:09:22.164Z,35.55
2019-06-20T08:11:54.225Z,35.55
2019-06-20T08:14:26.294Z,35.51
2019-06-20T08:16:58.457Z,35.45
2019-06-20T08:19:30.417Z,35.56
2019-06-20T08:22:02.512Z,35.56
2019-06-20T08:24:34.752Z,35.61
2019-06-20T08:27:06.803Z,35.59
2019-06-20T08:29:38.652Z,35.35
2019-06-20T08:32:10.367Z,35.50
2019-06-20T08:38:38.601Z,36.05
2019-06-20T08:41:10.705Z,36.12
2019-06-20T08:43:43.080Z,36.10
2019-06-20T08:46:14.964Z,35.75
2019-06-20T08:48:46.998Z,35.44
2019-06-20T08:51:19.174Z,35.45
2019-06-20T08:53:51.240Z,35.16
2019-06-20T08:56:23.376Z,34.78
2019-06-20T08:58:57.001Z,34.35
2019-06-20T09:01:29.778Z,34.24
2019-06-20T09:06:34.051Z,34.75
2019-06-20T09:09:07.337Z,35.03
2019-06-20T09:11:39.451Z,35.23
2019-06-20T09:14:11.552Z,34.97
2019-06-20T09:16:43.819Z,34.82
2019-06-20T09:19:15.888Z,34.83
2019-06-20T09:21:48.170Z,35.17
2019-06-20T09:24:20.136Z,35.56
2019-06-20T09:26:52.758Z,35.88
2019-06-20T09:29:38.338Z,36.17
2019-06-20T09:32:00.037Z,36.50
2019-06-20T09:34:32.992Z,36.59
2019-06-20T09:37:05.162Z,36.91
2019-06-20T09:39:37.228Z,37.20
2019-06-20T09:42:10.008Z,37.24
2019-06-20T09:44:42.176Z,37.35
2019-06-20T09:47:14.042Z,37.29
2019-06-20T09:49:49.190Z,37.13
2019-06-20T09:52:19.395Z,36.82
2019-06-20T09:54:53.864Z,36.65
2019-06-20T09:57:25.881Z,36.69
2019-06-20T10:00:07.693Z,36.90
2019-06-20T10:02:31.661Z,36.69
2019-06-20T10:05:05.866Z,36.73
2019-06-20T10:07:37.944Z,36.73
2019-06-20T10:10:11.643Z,36.25
2019-06-20T10:12:43.510Z,36.08
2019-06-20T10:15:24.947Z,36.25
2019-06-20T10:17:56.973Z,36.57
2019-06-20T10:20:29.039Z,36.53
2019-06-20T10:23:01.310Z,36.60
2019-06-20T10:25:33.382Z,37.07
2019-06-20T10:28:05.757Z,37.65
2019-06-20T10:30:37.823Z,37.94
2019-06-20T10:33:09.585Z,37.95
2019-06-20T10:35:41.757Z,37.70
2019-06-20T10:38:13.931Z,37.58
2019-06-20T10:40:46.389Z,37.45
2019-06-20T10:43:19.409Z,37.15
2019-06-20T10:45:52.376Z,37.19
2019-06-20T10:48:24.390Z,36.93
2019-06-20T10:50:58.068Z,36.81
2019-06-20T10:53:30.142Z,36.65
2019-06-20T10:56:02.204Z,36.71
2019-06-20T10:58:34.283Z,37.55
2019-06-20T11:01:06.439Z,38.59
2019-06-20T11:03:39.280Z,39.38
2019-06-20T11:06:12.010Z,39.85
2019-06-20T11:08:45.145Z,39.60
2019-06-20T11:11:17.181Z,38.52
2019-06-20T11:13:49.136Z,37.44
2019-06-20T11:16:21.514Z,36.83
2019-06-20T11:18:53.784Z,36.64
2019-06-20T11:21:25.547Z,36.33
2019-06-20T11:23:57.716Z,36.68
2019-06-20T11:26:29.681Z,37.77
2019-06-20T11:29:01.870Z,38.73
2019-06-20T11:31:33.926Z,39.01
2019-06-20T11:34:05.796Z,39.57
2019-06-20T11:36:38.690Z,39.31
2019-06-20T11:39:10.953Z,38.69
2019-06-20T11:41:43.684Z,38.19
2019-06-20T11:44:15.506Z,38.24
2019-06-20T11:46:47.465Z,38.46
2019-06-20T11:49:19.441Z,38.14
2019-06-20T11:51:51.502Z,37.83
2019-06-20T11:54:23.550Z,38.06
2019-06-20T11:56:55.640Z,38.00
2019-06-20T11:59:28.017Z,37.96
2019-06-20T12:02:00.082Z,38.06
2019-06-20T12:04:31.951Z,38.40
2019-06-20T12:07:04.324Z,38.73
2019-06-20T12:09:36.605Z,38.91
2019-06-20T12:12:08.563Z,39.68
2019-06-20T12:14:42.517Z,39.95
2019-06-20T12:17:14.174Z,39.77
2019-06-20T12:19:46.728Z,39.61
2019-06-20T12:22:18.693Z,40.36
2019-06-20T12:24:50.852Z,40.72
2019-06-20T12:27:22.931Z,40.30
2019-06-20T12:29:55.111Z,39.53
2019-06-20T12:32:27.376Z,39.63
2019-06-20T12:34:59.752Z,39.99
2019-06-20T12:37:31.813Z,40.17
2019-06-20T12:40:06.955Z,39.99
2019-06-20T12:42:41.234Z,38.69
2019-06-20T12:45:12.959Z,39.26
2019-06-20T12:47:46.106Z,39.87
2019-06-20T12:50:18.299Z,39.33
2019-06-20T12:52:50.461Z,40.10
2019-06-20T12:55:22.330Z,41.18
2019-06-20T12:57:54.389Z,42.47
2019-06-20T13:00:26.665Z,43.77
2019-06-20T13:02:58.424Z,44.05
2019-06-20T13:05:30.192Z,43.62
2019-06-20T13:08:02.578Z,42.87
2019-06-20T13:10:34.637Z,41.58
2019-06-20T13:13:06.915Z,41.17
2019-06-20T13:15:39.401Z,40.49
2019-06-20T13:18:12.601Z,39.40
2019-06-20T13:20:44.551Z,39.11
2019-06-20T13:23:16.614Z,39.90
2019-06-20T13:25:48.999Z,40.24
2019-06-20T13:28:20.869Z,40.77
2019-06-20T13:30:53.031Z,40.64
2019-06-20T13:33:25.311Z,39.78
2019-06-20T13:35:57.108Z,39.11
2019-06-20T13:38:29.347Z,39.96
2019-06-20T13:41:01.513Z,40.45
2019-06-20T13:43:33.585Z,41.06
2019-06-20T13:46:05.582Z,39.79
2019-06-20T13:48:38.895Z,38.98
2019-06-20T13:51:11.426Z,39.55
2019-06-20T13:53:44.228Z,39.87
2019-06-20T13:56:16.167Z,40.15
2019-06-20T13:58:48.824Z,40.95
2019-06-20T14:01:20.724Z,41.79
2019-06-20T14:03:53.022Z,42.12
2019-06-20T14:06:24.873Z,42.59
2019-06-20T14:08:56.823Z,43.19
2019-06-20T14:11:28.791Z,42.97
2019-06-20T14:14:00.963Z,43.24
2019-06-20T14:16:33.137Z,43.12
2019-06-20T14:19:05.204Z,42.63
2019-06-20T14:21:37.063Z,42.36
2019-06-20T14:24:09.138Z,42.36
2019-06-20T14:26:43.382Z,40.79
2019-06-20T14:29:14.708Z,39.71
2019-06-20T14:31:49.142Z,40.10
2019-06-20T14:34:22.219Z,40.58
2019-06-20T14:36:54.107Z,40.78
2019-06-20T14:39:25.973Z,41.41
2019-06-20T14:41:58.119Z,42.20
2019-06-20T14:44:30.288Z,42.51
2019-06-20T14:47:02.257Z,42.99
2019-06-20T14:49:34.174Z,43.34
2019-06-20T14:52:05.983Z,43.64
2019-06-20T14:54:38.256Z,43.30
2019-06-20T14:57:10.330Z,43.25
2019-06-20T14:59:43.149Z,43.65
2019-06-20T15:02:15.902Z,43.33
2019-06-20T15:04:48.067Z,42.90
2019-06-20T15:07:20.240Z,43.22
2019-06-20T15:09:53.233Z,43.09
2019-06-20T15:12:25.211Z,42.61
2019-06-20T15:14:57.367Z,42.70
2019-06-20T15:17:29.438Z,42.90
2019-06-20T15:20:01.712Z,42.71
2019-06-20T15:22:33.782Z,42.68
2019-06-20T15:25:06.946Z,42.47
2019-06-20T15:27:38.739Z,42.05
2019-06-20T15:30:10.813Z,41.86
2019-06-20T15:32:55.595Z,42.30
2019-06-20T15:35:17.185Z,42.14
2019-06-20T15:37:51.616Z,41.65
2019-06-20T15:40:23.892Z,41.32
2019-06-20T15:42:56.974Z,41.04
2019-06-20T15:45:29.765Z,41.06
2019-06-20T15:48:01.751Z,40.98
2019-06-20T15:51:02.071Z,40.91
2019-06-20T15:53:36.134Z,41.23
2019-06-20T15:56:08.540Z,41.01
2019-06-20T15:58:40.612Z,40.77
2019-06-20T16:01:12.474Z,40.38
2019-06-20T16:03:44.446Z,40.22
2019-06-20T16:06:16.513Z,39.88
2019-06-20T16:08:48.475Z,38.40
2019-06-20T16:11:20.651Z,37.38
2019-06-20T16:13:52.616Z,36.59
2019-06-20T16:16:24.778Z,35.99
2019-06-20T16:18:56.958Z,35.55
2019-06-20T16:21:29.128Z,35.18
2019-06-20T16:24:00.992Z,34.84
2019-06-20T16:26:33.047Z,34.57
2019-06-20T16:29:06.830Z,34.45
2019-06-20T16:31:39.332Z,34.72
2019-06-20T16:34:11.199Z,34.84
2019-06-20T16:36:43.258Z,34.52
2019-06-20T16:39:15.499Z,34.04
2019-06-20T16:41:47.606Z,33.70
2019-06-20T16:44:21.772Z,33.53
2019-06-20T16:46:53.881Z,33.29
2019-06-20T16:49:25.649Z,33.65
2019-06-20T16:51:57.742Z,34.17
2019-06-20T16:54:29.700Z,34.51
2019-06-20T16:57:01.842Z,34.69
2019-06-20T16:59:34.118Z,34.59
2019-06-20T17:02:06.101Z,34.54
2019-06-20T17:04:37.814Z,34.54
2019-06-20T17:07:09.627Z,34.44
2019-06-20T17:09:41.661Z,34.25
2019-06-20T17:12:13.507Z,34.16
2019-06-20T17:14:45.300Z,33.97
2019-06-20T17:17:18.103Z,33.73
2019-06-20T17:19:50.151Z,33.60
2019-06-20T17:22:22.217Z,33.00
2019-06-20T17:24:54.211Z,32.37
2019-06-20T17:27:26.366Z,31.88
2019-06-20T17:29:58.223Z,31.42
2019-06-20T17:32:30.721Z,31.08
2019-06-20T17:35:02.964Z,30.84
2019-06-20T17:37:34.832Z,30.64
2019-06-20T17:40:08.840Z,30.45
2019-06-20T17:42:40.726Z,30.31
2019-06-20T17:45:13.628Z,30.13
2019-06-20T17:47:45.550Z,30.03
2019-06-20T17:50:17.718Z,29.92
2019-06-20T17:52:49.693Z,29.79
2019-06-20T17:55:22.207Z,29.71
2019-06-20T17:57:54.328Z,29.59
2019-06-20T18:00:26.295Z,29.46
2019-06-20T18:02:58.572Z,29.38
2019-06-20T18:05:31.650Z,29.27
2019-06-20T18:08:14.492Z,29.20
2019-06-20T18:10:37.433Z,29.10
2019-06-20T18:13:09.432Z,29.02
2019-06-20T18:15:41.576Z,28.93
2019-06-20T18:18:13.538Z,28.83
2019-06-20T18:20:45.445Z,28.71
2019-06-20T18:23:17.470Z,28.59
2019-06-20T18:25:49.950Z,28.52
2019-06-20T18:28:22.246Z,28.43
2019-06-20T18:30:54.706Z,28.31
2019-06-20T18:33:26.977Z,28.21
2019-06-20T18:35:58.942Z,28.13
2019-06-20T18:38:31.246Z,28.04
2019-06-20T18:41:03.319Z,27.97
2019-06-20T18:43:35.442Z,27.88
2019-06-20T18:46:07.612Z,27.79
2019-06-20T18:48:39.466Z,27.67
2019-06-20T18:51:11.429Z,27.55
2019-06-20T18:53:43.815Z,27.44
2019-06-20T18:56:15.773Z,27.35
2019-06-20T18:58:47.937Z,27.25
2019-06-20T19:01:20.031Z,27.11
2019-06-20T19:03:52.391Z,27.01
2019-06-20T19:06:35.553Z,26.94
2019-06-20T19:08:58.053Z,26.85
2019-06-20T19:11:30.433Z,26.79
2019-06-20T19:14:03.735Z,26.76
2019-06-20T19:16:36.041Z,26.60
2019-06-20T19:19:08.076Z,26.47
2019-06-20T19:21:40.440Z,26.40
2019-06-20T19:24:12.298Z,26.36
2019-06-20T19:26:44.369Z,26.25
2019-06-20T19:29:16.329Z,26.17
2019-06-20T19:31:48.305Z,26.14
2019-06-20T19:34:20.469Z,26.18
2019-06-20T19:36:52.747Z,26.26
2019-06-20T19:39:25.118Z,26.26
2019-06-20T19:41:57.103Z,26.28
2019-06-20T19:44:29.049Z,26.27
2019-06-20T19:47:01.221Z,26.23
2019-06-20T19:49:33.698Z,26.09
2019-06-20T19:52:05.869Z,26.06
2019-06-20T19:54:38.244Z,26.03
2019-06-20T19:57:10.314Z,26.13
2019-06-20T19:59:42.282Z,26.16
2019-06-20T20:02:14.461Z,26.11
2019-06-20T20:04:46.635Z,25.99
2019-06-20T20:07:18.741Z,25.89
2019-06-20T20:09:51.081Z,25.86
2019-06-20T20:12:23.345Z,25.97
2019-06-20T20:14:55.317Z,25.90
2019-06-20T20:17:27.389Z,25.82
2019-06-20T20:19:59.250Z,25.73
2019-06-20T20:22:31.319Z,25.74
2019-06-20T20:25:06.155Z,25.85
2019-06-20T20:27:37.851Z,25.91
2019-06-20T20:30:13.023Z,25.78
2019-06-20T20:32:45.332Z,25.90
2019-06-20T20:35:31.555Z,25.97
2019-06-20T20:37:51.906Z,26.04
2019-06-20T20:40:25.066Z,26.14
2019-06-20T20:42:57.391Z,26.17
2019-06-20T20:45:29.260Z,26.18
2019-06-20T20:48:01.625Z,26.14
2019-06-20T20:50:33.593Z,26.09
2019-06-20T20:53:05.463Z,26.08
2019-06-20T20:55:37.431Z,26.02
2019-06-20T20:58:09.796Z,25.98
2019-06-20T21:00:59.783Z,25.91
2019-06-20T21:03:31.852Z,25.83
2019-06-20T21:06:03.847Z,25.70
2019-06-20T21:08:35.625Z,25.62
2019-06-20T21:11:07.437Z,25.61
2019-06-20T21:13:39.614Z,25.62
2019-06-20T21:16:11.577Z,25.64
2019-06-20T21:18:43.440Z,25.61
2019-06-20T21:21:15.714Z,25.63
2019-06-20T21:23:47.801Z,25.66
2019-06-20T21:26:19.959Z,25.64
2019-06-20T21:28:52.032Z,25.62
2019-06-20T21:31:24.608Z,25.55
2019-06-20T21:33:57.280Z,25.49
2019-06-20T21:36:29.159Z,25.47
2019-06-20T21:39:01.322Z,25.43
2019-06-20T21:41:35.133Z,25.36
2019-06-20T21:44:07.310Z,25.24
2019-06-20T21:46:39.372Z,25.19
2019-06-20T21:49:11.747Z,25.16
2019-06-20T21:51:44.809Z,25.08
2019-06-20T21:54:16.815Z,25.07
2019-06-20T21:56:48.986Z,25.11
2019-06-20T21:59:20.837Z,25.15
2019-06-20T22:01:54.142Z,25.17
2019-06-20T22:04:26.112Z,25.14
2019-06-20T22:06:58.380Z,25.13
2019-06-20T22:09:30.453Z,25.08
2019-06-20T22:12:02.757Z,25.10
2019-06-20T22:14:34.994Z,25.07
2019-06-20T22:17:07.060Z,24.98
2019-06-20T22:19:40.165Z,24.87
2019-06-20T22:22:12.495Z,24.79
2019-06-20T22:24:44.403Z,24.78
2019-06-20T22:27:16.773Z,24.75
2019-06-20T22:29:48.677Z,24.75
2019-06-20T22:32:21.115Z,24.73
2019-06-20T22:34:53.386Z,24.79
2019-06-20T22:37:25.354Z,24.79
2019-06-20T22:39:57.422Z,24.78
2019-06-20T22:42:29.592Z,24.72
2019-06-20T22:45:01.814Z,24.67
2019-06-20T22:47:33.738Z,24.64
2019-06-20T22:50:10.205Z,24.64
2019-06-20T22:52:42.168Z,24.60
2019-06-20T22:55:14.541Z,24.58
2019-06-20T22:57:46.607Z,24.66
2019-06-20T23:00:18.788Z,24.75
2019-06-20T23:02:50.856Z,24.76
2019-06-20T23:05:23.021Z,24.68
2019-06-20T23:07:55.099Z,24.58
2019-06-20T23:10:27.263Z,24.61
2019-06-20T23:12:59.639Z,24.59
2019-06-20T23:15:31.636Z,24.59
2019-06-20T23:18:03.468Z,24.58
2019-06-20T23:20:35.646Z,24.54
2019-06-20T23:23:07.503Z,24.49
2019-06-20T23:25:41.218Z,24.46
2019-06-20T23:28:13.281Z,24.50
2019-06-20T23:30:45.447Z,24.48
2019-06-20T23:33:17.622Z,24.46
2019-06-20T23:35:49.994Z,24.45
2019-06-20T23:38:21.976Z,24.40
2019-06-20T23:40:54.146Z,24.33
2019-06-20T23:43:26.414Z,24.26
2019-06-20T23:45:58.580Z,24.20
2019-06-20T23:48:33.452Z,24.08
2019-06-20T23:51:04.668Z,23.98
2019-06-20T23:53:36.835Z,23.90
2019-06-20T23:56:08.667Z,23.82
2019-06-20T23:58:41.281Z,23.78
